createdAt,value
2019-05-10T00:00:19.239Z,97319.65
2019-05-10T00:03:08.635Z,97311.61
2019-05-10T00:05:58.053Z,97313.95
2019-05-10T00:08:47.284Z,97315.40
2019-05-10T00:11:41.019Z,97314.09
2019-05-10T00:14:32.380Z,97321.67
2019-05-10T00:17:17.766Z,97321.53
2019-05-10T00:19:49.323Z,97324.83
2019-05-10T00:22:21.520Z,97324.47
2019-05-10T00:25:03.821Z,97328.40
2019-05-10T00:27:27.470Z,97323.66
2019-05-10T00:29:59.105Z,97325.11
2019-05-10T00:32:30.741Z,97328.35
2019-05-10T00:35:02.366Z,97329.17
2019-05-10T00:37:33.953Z,97332.60
2019-05-10T00:40:07.428Z,97335.85
2019-05-10T00:42:39.032Z,97341.72
2019-05-10T00:45:10.813Z,97340.87
2019-05-10T00:47:43.487Z,97342.67
2019-05-10T00:50:15.535Z,97340.05
2019-05-10T00:52:47.219Z,97340.05
2019-05-10T00:55:19.574Z,97342.45
2019-05-10T00:57:51.261Z,97346.88
2019-05-10T01:00:22.935Z,97345.56
2019-05-10T01:02:54.523Z,97349.63
2019-05-10T01:05:26.120Z,97351.30
2019-05-10T01:07:57.723Z,97351.75
2019-05-10T01:10:29.327Z,97354.87
2019-05-10T01:13:01.022Z,97353.20
2019-05-10T01:15:32.687Z,97362.50
2019-05-10T01:18:04.354Z,97365.75
2019-05-10T01:20:35.978Z,97365.25
2019-05-10T01:23:07.562Z,97364.93
2019-05-10T01:25:40.285Z,97367.69
2019-05-10T01:28:11.840Z,97372.56
2019-05-10T01:30:43.454Z,97373.78
2019-05-10T01:33:15.059Z,97372.56
2019-05-10T01:35:46.651Z,97381.86
2019-05-10T01:38:18.238Z,97383.41
2019-05-10T01:40:49.849Z,97389.95
2019-05-10T01:43:21.413Z,97388.42
2019-05-10T01:45:52.991Z,97389.53
2019-05-10T01:48:24.677Z,97393.78
2019-05-10T01:50:56.268Z,97384.77
2019-05-10T01:53:27.851Z,97390.12
2019-05-10T01:56:00.543Z,97390.98
2019-05-10T01:58:32.113Z,97390.48
2019-05-10T02:01:03.808Z,97392.42
2019-05-10T02:03:36.482Z,97397.78
2019-05-10T02:06:08.023Z,97393.73
2019-05-10T02:08:39.629Z,97390.75
2019-05-10T02:11:11.209Z,97395.03
2019-05-10T02:13:42.794Z,97393.38
2019-05-10T02:16:14.390Z,97390.08
2019-05-10T02:18:45.961Z,97400.54
2019-05-10T02:21:17.530Z,97408.34
2019-05-10T02:23:49.110Z,97410.54
2019-05-10T02:26:20.661Z,97404.04
2019-05-10T02:28:52.234Z,97403.71
2019-05-10T02:31:25.028Z,97403.22
2019-05-10T02:33:56.640Z,97410.25
2019-05-10T02:36:28.240Z,97403.00
2019-05-10T02:38:59.813Z,97414.05
2019-05-10T02:41:31.405Z,97410.58
2019-05-10T02:44:03.076Z,97406.79
2019-05-10T02:46:36.104Z,97408.72
2019-05-10T02:49:07.704Z,97409.47
2019-05-10T02:51:39.311Z,97404.87
2019-05-10T02:54:10.880Z,97408.43
2019-05-10T02:56:42.921Z,97416.27
2019-05-10T02:59:15.269Z,97425.69
2019-05-10T03:01:47.641Z,97417.48
2019-05-10T03:04:20.688Z,97415.86
2019-05-10T03:07:02.665Z,97414.88
2019-05-10T03:09:36.553Z,97407.16
2019-05-10T03:12:25.850Z,97402.06
2019-05-10T03:14:59.766Z,97414.45
2019-05-10T03:17:33.151Z,97426.25
2019-05-10T03:20:04.839Z,97426.22
2019-05-10T03:22:42.911Z,97428.53
2019-05-10T03:25:15.464Z,97431.02
2019-05-10T03:27:47.062Z,97432.88
2019-05-10T03:30:19.244Z,97444.25
2019-05-10T03:32:50.841Z,97438.77
2019-05-10T03:35:23.467Z,97441.94
2019-05-10T03:37:56.927Z,97446.91
2019-05-10T03:40:28.483Z,97450.24
2019-05-10T03:43:00.043Z,97458.77
2019-05-10T03:45:33.443Z,97462.47
2019-05-10T03:48:05.019Z,97462.53
2019-05-10T03:50:36.660Z,97468.45
2019-05-10T03:53:08.267Z,97462.53
2019-05-10T03:55:39.825Z,97461.09
2019-05-10T03:58:11.409Z,97467.75
2019-05-10T04:00:42.984Z,97474.55
2019-05-10T04:03:14.671Z,97473.11
2019-05-10T04:05:46.211Z,97466.58
2019-05-10T04:08:17.791Z,97471.45
2019-05-10T04:10:49.357Z,97474.81
2019-05-10T04:13:20.929Z,97468.96
2019-05-10T04:15:55.108Z,97478.93
2019-05-10T04:18:26.696Z,97487.01
2019-05-10T04:20:58.269Z,97491.29
2019-05-10T04:23:29.846Z,97493.77
2019-05-10T04:26:01.409Z,97497.59
2019-05-10T04:28:32.998Z,97496.28
2019-05-10T04:31:04.568Z,97494.59
2019-05-10T04:33:36.147Z,97499.08
2019-05-10T04:36:12.343Z,97501.17
2019-05-10T04:38:41.028Z,97506.14
2019-05-10T04:41:12.590Z,97507.31
2019-05-10T04:43:44.165Z,97505.19
2019-05-10T04:46:15.730Z,97515.39
2019-05-10T04:48:47.303Z,97513.14
2019-05-10T04:51:18.874Z,97519.55
2019-05-10T04:53:51.551Z,97515.63
2019-05-10T04:56:23.128Z,97516.77
2019-05-10T04:58:54.794Z,97512.03
2019-05-10T05:01:26.396Z,97515.92
2019-05-10T05:03:57.983Z,97507.45
2019-05-10T05:06:29.602Z,97521.45
2019-05-10T05:09:01.183Z,97514.91
2019-05-10T05:11:32.815Z,97516.34
2019-05-10T05:14:04.465Z,97522.14
2019-05-10T05:16:36.029Z,97521.75
2019-05-10T05:19:08.695Z,97538.23
2019-05-10T05:21:40.257Z,97532.28
2019-05-10T05:24:16.918Z,97539.51
2019-05-10T05:26:46.380Z,97539.60
2019-05-10T05:29:18.009Z,97543.09
2019-05-10T05:31:53.903Z,97542.86
2019-05-10T05:34:22.942Z,97541.92
2019-05-10T05:36:54.527Z,97541.08
2019-05-10T05:39:26.127Z,97549.09
2019-05-10T05:41:57.706Z,97553.52
2019-05-10T05:44:30.382Z,97558.17
2019-05-10T05:47:04.561Z,97555.77
2019-05-10T05:49:35.239Z,97557.24
2019-05-10T05:52:06.846Z,97559.31
2019-05-10T05:54:38.414Z,97557.97
2019-05-10T05:57:10.032Z,97559.28
2019-05-10T05:59:41.615Z,97563.50
2019-05-10T06:02:13.227Z,97564.48
2019-05-10T06:04:46.282Z,97560.60
2019-05-10T06:07:18.084Z,97568.89
2019-05-10T06:09:49.660Z,97574.55
2019-05-10T06:12:21.253Z,97575.11
2019-05-10T06:14:52.866Z,97579.24
2019-05-10T06:17:29.398Z,97572.34
2019-05-10T06:20:01.030Z,97573.38
2019-05-10T06:22:30.964Z,97573.84
2019-05-10T06:25:02.562Z,97582.25
2019-05-10T06:27:35.246Z,97579.95
2019-05-10T06:30:09.213Z,97580.80
2019-05-10T06:32:40.766Z,97587.27
2019-05-10T06:35:14.283Z,97587.13
2019-05-10T06:37:45.611Z,97584.95
2019-05-10T06:40:17.208Z,97587.66
2019-05-10T06:42:48.798Z,97594.22
2019-05-10T06:45:20.517Z,97594.15
2019-05-10T06:47:53.474Z,97595.03
2019-05-10T06:50:29.950Z,97601.27
2019-05-10T06:53:00.776Z,97600.86
2019-05-10T06:55:31.808Z,97601.35
2019-05-10T06:58:03.413Z,97601.42
2019-05-10T07:00:38.266Z,97604.50
2019-05-10T07:03:08.257Z,97608.02
2019-05-10T07:05:39.824Z,97617.55
2019-05-10T07:08:19.739Z,97620.23
2019-05-10T07:10:44.765Z,97610.67
2019-05-10T07:13:16.868Z,97618.27
2019-05-10T07:15:48.567Z,97624.17
2019-05-10T07:18:22.574Z,97625.22
2019-05-10T07:20:53.510Z,97633.56
2019-05-10T07:23:29.737Z,97631.16
2019-05-10T07:25:59.570Z,97625.73
2019-05-10T07:28:31.181Z,97632.48
2019-05-10T07:31:02.754Z,97628.34
2019-05-10T07:33:37.234Z,97625.38
2019-05-10T07:36:14.295Z,97624.05
2019-05-10T07:38:40.909Z,97628.84
2019-05-10T07:41:12.510Z,97625.34
2019-05-10T07:43:47.922Z,97624.64
2019-05-10T07:46:17.414Z,97626.15
2019-05-10T07:48:53.576Z,97624.58
2019-05-10T07:51:22.828Z,97627.25
2019-05-10T07:53:57.008Z,97631.05
2019-05-10T07:56:28.920Z,97633.90
2019-05-10T07:59:00.865Z,97635.73
2019-05-10T08:01:34.824Z,97635.42
2019-05-10T08:04:05.789Z,97628.45
2019-05-10T08:06:43.580Z,97633.05
2019-05-10T08:09:12.078Z,97632.59
2019-05-10T08:11:43.943Z,97634.52
2019-05-10T08:14:15.526Z,97636.74
2019-05-10T08:16:51.892Z,97638.89
2019-05-10T08:19:20.391Z,97640.14
2019-05-10T08:21:56.441Z,97646.96
2019-05-10T08:24:25.251Z,97642.05
2019-05-10T08:27:06.842Z,97644.86
2019-05-10T08:29:33.062Z,97648.34
2019-05-10T08:32:04.895Z,97651.94
2019-05-10T08:34:39.382Z,97643.91
2019-05-10T08:37:09.775Z,97647.32
2019-05-10T08:39:49.399Z,97647.44
2019-05-10T08:42:32.575Z,97643.86
2019-05-10T08:44:53.679Z,97639.92
2019-05-10T08:47:26.728Z,97641.53
2019-05-10T08:50:09.830Z,97648.07
2019-05-10T08:52:31.696Z,97647.63
2019-05-10T08:55:02.825Z,97645.11
2019-05-10T08:57:43.432Z,97651.09
2019-05-10T09:00:09.845Z,97654.44
2019-05-10T09:02:42.735Z,97656.34
2019-05-10T09:05:14.958Z,97659.45
2019-05-10T09:07:46.534Z,97661.91
2019-05-10T09:10:19.426Z,97663.94
2019-05-10T09:12:57.892Z,97668.03
2019-05-10T09:15:24.278Z,97666.50
2019-05-10T09:17:58.294Z,97669.16
2019-05-10T09:20:31.341Z,97670.58
2019-05-10T09:23:02.688Z,97661.14
2019-05-10T09:25:34.272Z,97662.56
2019-05-10T09:28:11.601Z,97660.42
2019-05-10T09:30:54.090Z,97658.92
2019-05-10T09:33:14.366Z,97666.22
2019-05-10T09:35:51.424Z,97659.73
2019-05-10T09:38:21.954Z,97659.72
2019-05-10T09:40:56.231Z,97666.99
2019-05-10T09:43:26.144Z,97665.59
2019-05-10T09:45:57.730Z,97662.14
2019-05-10T09:48:29.810Z,97665.81
2019-05-10T09:51:04.216Z,97660.56
2019-05-10T09:53:34.980Z,97659.53
2019-05-10T09:56:07.837Z,97656.21
2019-05-10T09:58:39.615Z,97653.95
2019-05-10T10:01:18.014Z,97664.02
2019-05-10T10:03:44.971Z,97656.58
2019-05-10T10:06:16.739Z,97658.89
2019-05-10T10:08:51.924Z,97659.56
2019-05-10T10:11:21.593Z,97662.21
2019-05-10T10:13:59.192Z,97654.13
2019-05-10T10:16:28.211Z,97665.36
2019-05-10T10:18:59.911Z,97655.44
2019-05-10T10:21:35.317Z,97662.03
2019-05-10T10:24:12.657Z,97664.20
2019-05-10T10:26:38.104Z,97656.92
2019-05-10T10:29:09.812Z,97655.41
2019-05-10T10:31:51.152Z,97655.10
2019-05-10T10:34:14.695Z,97662.20
2019-05-10T10:36:47.504Z,97656.59
2019-05-10T10:39:22.817Z,97655.09
2019-05-10T10:41:52.521Z,97655.73
2019-05-10T10:44:24.095Z,97656.75
2019-05-10T10:46:58.076Z,97663.16
2019-05-10T10:49:31.921Z,97660.30
2019-05-10T10:52:05.610Z,97668.27
2019-05-10T10:54:37.550Z,97658.23
2019-05-10T10:57:08.951Z,97659.39
2019-05-10T10:59:40.537Z,97660.53
2019-05-10T11:02:33.389Z,97655.73
2019-05-10T11:04:46.666Z,97661.29
2019-05-10T11:07:18.683Z,97654.25
2019-05-10T11:09:53.676Z,97654.76
2019-05-10T11:12:24.152Z,97659.39
2019-05-10T11:14:55.822Z,97654.63
2019-05-10T11:17:27.394Z,97659.05
2019-05-10T11:20:00.600Z,97654.13
2019-05-10T11:22:33.431Z,97661.38
2019-05-10T11:25:09.764Z,97653.77
2019-05-10T11:27:38.579Z,97653.26
2019-05-10T11:30:12.129Z,97651.41
2019-05-10T11:32:43.637Z,97647.33
2019-05-10T11:35:22.658Z,97648.76
2019-05-10T11:37:50.718Z,97647.32
2019-05-10T11:40:30.269Z,97654.16
2019-05-10T11:42:55.491Z,97647.60
2019-05-10T11:45:34.287Z,97641.56
2019-05-10T11:48:02.145Z,97642.28
2019-05-10T11:50:35.493Z,97651.91
2019-05-10T11:53:12.482Z,97643.33
2019-05-10T11:55:43.352Z,97638.86
2019-05-10T11:58:13.628Z,97646.11
2019-05-10T12:00:45.257Z,97651.06
2019-05-10T12:03:19.822Z,97651.54
2019-05-10T12:05:53.204Z,97655.47
2019-05-10T12:08:23.874Z,97656.28
2019-05-10T12:13:32.566Z,97653.23
2019-05-10T12:16:02.229Z,97651.77
2019-05-10T12:18:36.277Z,97651.84
2019-05-10T12:21:11.040Z,97654.59
2019-05-10T12:23:50.197Z,97652.28
2019-05-10T12:26:49.481Z,97649.88
2019-05-10T12:27:13.046Z,97649.19
2019-05-10T12:28:50.857Z,97656.12
2019-05-10T12:31:23.299Z,97660.71
2019-05-10T12:34:02.500Z,97653.28
2019-05-10T12:36:31.389Z,97659.74
2019-05-10T12:39:03.672Z,97656.77
2019-05-10T12:41:39.666Z,97660.37
2019-05-10T12:44:11.221Z,97663.84
2019-05-10T12:46:42.939Z,97656.36
2019-05-10T12:49:14.696Z,97665.84
2019-05-10T12:51:46.303Z,97667.27
2019-05-10T12:54:18.416Z,97668.89
2019-05-10T12:56:51.210Z,97670.91
2019-05-10T12:59:22.841Z,97671.31
2019-05-10T13:01:58.019Z,97675.45
2019-05-10T13:04:40.158Z,97674.94
2019-05-10T13:07:01.144Z,97679.13
2019-05-10T13:09:39.970Z,97676.30
2019-05-10T13:12:06.455Z,97675.96
2019-05-10T13:14:40.374Z,97679.73
2019-05-10T13:17:12.292Z,97680.34
2019-05-10T13:19:44.691Z,97678.91
2019-05-10T13:22:16.388Z,97684.89
2019-05-10T13:24:49.087Z,97674.88
2019-05-10T13:27:20.670Z,97673.27
2019-05-10T13:29:53.515Z,97681.83
2019-05-10T13:32:26.562Z,97674.03
2019-05-10T13:34:59.622Z,97680.50
2019-05-10T13:37:31.245Z,97677.05
2019-05-10T13:40:08.115Z,97672.59
2019-05-10T13:42:43.382Z,97673.78
2019-05-10T13:45:10.016Z,97671.97
2019-05-10T13:47:41.659Z,97670.16
2019-05-10T13:50:16.351Z,97676.58
2019-05-10T13:52:48.034Z,97672.93
2019-05-10T13:55:19.659Z,97674.09
2019-05-10T13:57:54.294Z,97681.34
2019-05-10T14:00:32.980Z,97681.17
2019-05-10T14:03:05.080Z,97687.14
2019-05-10T14:05:33.089Z,97683.37
2019-05-10T14:08:04.664Z,97697.08
2019-05-10T14:10:36.336Z,97702.02
2019-05-10T14:13:07.945Z,97703.35
2019-05-10T14:15:39.650Z,97701.19
2019-05-10T14:18:11.355Z,97698.67
2019-05-10T14:20:43.133Z,97711.17
2019-05-10T14:23:17.749Z,97708.52
2019-05-10T14:25:48.064Z,97714.23
2019-05-10T14:28:19.670Z,97716.18
2019-05-10T14:30:57.099Z,97731.30
2019-05-10T14:33:25.697Z,97732.03
2019-05-10T14:36:00.884Z,97734.20
2019-05-10T14:38:30.594Z,97729.39
2019-05-10T14:41:04.138Z,97720.29
2019-05-10T14:43:35.557Z,97728.36
2019-05-10T14:46:13.735Z,97723.77
2019-05-10T14:48:42.329Z,97718.41
2019-05-10T14:51:14.106Z,97722.51
2019-05-10T14:53:45.788Z,97713.88
2019-05-10T14:56:17.375Z,97718.88
2019-05-10T14:58:48.949Z,97719.12
2019-05-10T15:01:20.525Z,97720.33
2019-05-10T15:03:52.223Z,97724.86
2019-05-10T15:06:23.943Z,97721.66
2019-05-10T15:08:55.586Z,97726.31
2019-05-10T15:11:31.787Z,97719.19
2019-05-10T15:14:00.803Z,97717.64
2019-05-10T15:16:32.494Z,97711.70
2019-05-10T15:19:04.192Z,97717.02
2019-05-10T15:21:35.815Z,97720.19
2019-05-10T15:24:07.518Z,97709.03
2019-05-10T15:26:43.655Z,97718.02
2019-05-10T15:29:14.903Z,97718.98
2019-05-10T15:31:45.696Z,97718.90
2019-05-10T15:34:17.285Z,97718.08
2019-05-10T15:36:48.893Z,97717.23
2019-05-10T15:39:23.127Z,97718.30
2019-05-10T15:41:59.001Z,97718.16
2019-05-10T15:44:31.562Z,97714.88
2019-05-10T15:47:01.624Z,97719.27
2019-05-10T15:49:33.271Z,97720.13
2019-05-10T15:52:16.682Z,97717.32
2019-05-10T15:54:44.651Z,97715.80
2019-05-10T15:57:14.461Z,97718.12
2019-05-10T15:59:45.180Z,97718.95
2019-05-10T16:02:16.813Z,97710.25
2019-05-10T16:04:48.473Z,97696.70
2019-05-10T16:07:20.149Z,97692.73
2019-05-10T16:09:54.374Z,97683.49
2019-05-10T16:12:25.057Z,97680.69
2019-05-10T16:14:56.773Z,97681.84
2019-05-10T16:17:28.438Z,97679.84
2019-05-10T16:20:01.353Z,97677.71
2019-05-10T16:22:34.672Z,97678.69
2019-05-10T16:25:06.788Z,97683.47
2019-05-10T16:27:44.647Z,97693.88
2019-05-10T16:30:17.762Z,97694.00
2019-05-10T16:32:46.161Z,97699.68
2019-05-10T16:35:17.748Z,97691.92
2019-05-10T16:37:49.361Z,97688.15
2019-05-10T16:40:21.043Z,97689.13
2019-05-10T16:42:52.736Z,97683.03
2019-05-10T16:45:24.461Z,97685.66
2019-05-10T16:47:56.074Z,97685.14
2019-05-10T16:50:31.538Z,97686.49
2019-05-10T16:53:05.608Z,97685.16
2019-05-10T16:55:41.018Z,97679.56
2019-05-10T16:58:09.621Z,97675.61
2019-05-10T17:00:46.117Z,97682.05
2019-05-10T17:03:18.526Z,97685.14
2019-05-10T17:05:53.609Z,97698.98
2019-05-10T17:08:22.544Z,97693.36
2019-05-10T17:10:54.168Z,97692.02
2019-05-10T17:13:25.846Z,97698.08
2019-05-10T17:15:58.496Z,97702.66
2019-05-10T17:18:31.194Z,97698.67
2019-05-10T17:21:02.949Z,97696.66
2019-05-10T17:23:34.575Z,97697.17
2019-05-10T17:26:06.264Z,97692.86
2019-05-10T17:28:37.874Z,97691.98
2019-05-10T17:31:09.798Z,97695.66
2019-05-10T17:33:42.665Z,97694.11
2019-05-10T17:36:19.742Z,97684.88
2019-05-10T17:38:53.577Z,97687.78
2019-05-10T17:41:24.714Z,97688.75
2019-05-10T17:43:55.741Z,97685.73
2019-05-10T17:46:27.523Z,97697.27
2019-05-10T17:48:59.177Z,97692.92
2019-05-10T17:51:30.915Z,97679.75
2019-05-10T17:54:03.733Z,97682.07
2019-05-10T17:56:38.901Z,97675.95
2019-05-10T17:59:12.039Z,97689.78
2019-05-10T18:01:43.490Z,97684.00
2019-05-10T18:04:15.160Z,97682.29
2019-05-10T18:06:46.828Z,97675.39
2019-05-10T18:09:19.623Z,97673.56
2019-05-10T18:11:51.275Z,97682.93
2019-05-10T18:14:22.986Z,97690.28
2019-05-10T18:16:54.609Z,97690.42
2019-05-10T18:19:26.585Z,97686.77
2019-05-10T18:22:00.752Z,97691.64
2019-05-10T18:24:36.457Z,97681.91
2019-05-10T18:27:05.980Z,97679.58
2019-05-10T18:29:37.671Z,97686.47
2019-05-10T18:32:11.278Z,97686.77
2019-05-10T18:34:43.191Z,97684.23
2019-05-10T18:37:15.805Z,97678.58
2019-05-10T18:39:53.006Z,97678.83
2019-05-10T18:42:25.310Z,97679.83
2019-05-10T18:44:56.445Z,97677.27
2019-05-10T18:47:28.065Z,97680.12
2019-05-10T18:49:59.733Z,97689.36
2019-05-10T18:52:31.386Z,97692.39
2019-05-10T18:55:05.588Z,97687.02
2019-05-10T18:57:38.876Z,97693.64
2019-05-10T19:00:12.398Z,97687.61
2019-05-10T19:02:49.783Z,97696.81
2019-05-10T19:05:19.245Z,97696.86
2019-05-10T19:08:02.574Z,97696.33
2019-05-10T19:10:24.312Z,97691.53
2019-05-10T19:13:01.040Z,97689.08
2019-05-10T19:15:30.293Z,97687.84
2019-05-10T19:18:01.895Z,97687.30
2019-05-10T19:20:33.609Z,97688.69
2019-05-10T19:23:05.669Z,97686.93
2019-05-10T19:25:37.903Z,97687.62
2019-05-10T19:28:11.407Z,97689.00
2019-05-10T19:30:44.034Z,97690.45
2019-05-10T19:33:15.682Z,97693.36
2019-05-10T19:35:47.321Z,97696.89
2019-05-10T19:38:18.976Z,97695.86
2019-05-10T19:40:50.623Z,97695.78
2019-05-10T19:43:24.039Z,97712.62
2019-05-10T19:45:57.400Z,97725.47
2019-05-10T19:48:35.128Z,97721.61
2019-05-10T19:51:09.559Z,97739.16
2019-05-10T19:53:42.130Z,97734.33
2019-05-10T19:56:11.478Z,97733.61
2019-05-10T19:58:43.088Z,97728.77
2019-05-10T20:01:14.761Z,97729.13
2019-05-10T20:03:47.466Z,97732.79
2019-05-10T20:06:19.126Z,97736.73
2019-05-10T20:08:50.791Z,97737.91
2019-05-10T20:11:22.422Z,97734.42
2019-05-10T20:13:54.048Z,97741.20
2019-05-10T20:16:25.870Z,97740.13
2019-05-10T20:18:57.563Z,97733.75
2019-05-10T20:21:29.269Z,97734.30
2019-05-10T20:24:01.233Z,97734.30
2019-05-10T20:26:33.999Z,97743.70
2019-05-10T20:29:05.627Z,97735.01
2019-05-10T20:31:38.826Z,97740.72
2019-05-10T20:34:10.658Z,97740.66
2019-05-10T20:36:42.287Z,97735.55
2019-05-10T20:39:13.995Z,97734.02
2019-05-10T20:41:45.676Z,97735.33
2019-05-10T20:44:18.283Z,97731.75
2019-05-10T20:46:51.122Z,97734.51
2019-05-10T20:49:23.210Z,97728.63
2019-05-10T20:51:54.836Z,97726.42
2019-05-10T20:54:26.529Z,97726.33
2019-05-10T20:56:58.235Z,97726.60
2019-05-10T20:59:29.869Z,97737.23
2019-05-10T21:02:01.731Z,97722.25
2019-05-10T21:04:33.373Z,97722.75
2019-05-10T21:07:06.152Z,97728.45
2019-05-10T21:09:37.759Z,97723.70
2019-05-10T21:12:11.103Z,97719.63
2019-05-10T21:14:42.709Z,97716.19
2019-05-10T21:17:14.353Z,97718.59
2019-05-10T21:19:47.560Z,97727.08
2019-05-10T21:22:19.161Z,97729.58
2019-05-10T21:24:50.968Z,97742.70
2019-05-10T21:27:22.552Z,97737.13
2019-05-10T21:29:54.139Z,97739.88
2019-05-10T21:32:25.876Z,97728.81
2019-05-10T21:34:57.694Z,97715.83
2019-05-10T21:37:30.954Z,97712.30
2019-05-10T21:40:02.584Z,97717.81
2019-05-10T21:42:34.264Z,97706.28
2019-05-10T21:45:06.314Z,97701.04
2019-05-10T21:47:50.645Z,97702.70
2019-05-10T21:50:11.562Z,97698.42
2019-05-10T21:52:43.183Z,97700.35
2019-05-10T21:55:14.786Z,97694.62
2019-05-10T21:57:46.414Z,97689.38
2019-05-10T22:00:19.953Z,97683.09
2019-05-10T22:02:53.165Z,97671.30
2019-05-10T22:05:24.795Z,97653.02
2019-05-10T22:07:56.388Z,97638.87
2019-05-10T22:10:28.056Z,97638.56
2019-05-10T22:12:59.673Z,97636.38
2019-05-10T22:15:31.349Z,97627.11
2019-05-10T22:18:02.971Z,97640.39
2019-05-10T22:20:35.640Z,97638.89
2019-05-10T22:23:07.260Z,97637.08
2019-05-10T22:25:38.834Z,97629.58
2019-05-10T22:28:10.514Z,97632.11
2019-05-10T22:30:42.103Z,97638.17
2019-05-10T22:33:13.699Z,97636.04
2019-05-10T22:35:45.330Z,97625.01
2019-05-10T22:38:16.956Z,97626.45
2019-05-10T22:40:48.597Z,97623.11
2019-05-10T22:43:20.242Z,97628.71
2019-05-10T22:45:51.886Z,97639.55
2019-05-10T22:48:23.454Z,97643.21
2019-05-10T22:50:55.064Z,97650.94
2019-05-10T22:53:26.662Z,97654.28
2019-05-10T22:55:58.288Z,97659.88
2019-05-10T22:58:29.855Z,97660.83
2019-05-10T23:01:01.508Z,97657.03
2019-05-10T23:03:34.203Z,97655.86
2019-05-10T23:06:05.787Z,97653.23
2019-05-10T23:08:37.391Z,97655.53
2019-05-10T23:11:08.957Z,97653.63
2019-05-10T23:13:40.596Z,97648.20
2019-05-10T23:16:12.239Z,97648.20
2019-05-10T23:18:43.845Z,97640.20
2019-05-10T23:21:16.946Z,97642.24
2019-05-10T23:23:48.494Z,97639.89
2019-05-10T23:26:20.081Z,97650.52
2019-05-10T23:28:51.692Z,97645.55
2019-05-10T23:31:23.281Z,97635.50
2019-05-10T23:33:54.897Z,97635.27
2019-05-10T23:36:26.460Z,97627.35
2019-05-10T23:38:58.074Z,97615.34
2019-05-10T23:41:29.663Z,97614.16
2019-05-10T23:44:01.285Z,97619.92
2019-05-10T23:46:32.886Z,97617.66
2019-05-10T23:49:04.434Z,97623.48
2019-05-10T23:51:36.029Z,97618.97
2019-05-10T23:54:07.613Z,97607.87
2019-05-10T23:56:39.219Z,97611.31
2019-05-10T23:59:10.796Z,97601.56
